Time;durP1;ratioP1;P1;durP2;ratioP2;P2;SDS_P1;SDS_P2;PMS_P1;PMS_P2;Temp;Humidity;BMP_temperature;BMP_pressure;BME280_temperature;BME280_humidity;BME280_pressure;Samples;Min_cycle;Max_cycle;Signal;HPM_P1;HPM_P2
2023/07/01 00:00:40;;;;;;;9.15;3.80;;;18.90;99.90;;;;;;5036816;28;20063;-73
2023/07/01 00:03:07;;;;;;;9.27;3.88;;;18.80;99.90;;;;;;5039012;28;20044;-73
2023/07/01 00:05:33;;;;;;;;;;;18.80;99.90;;;;;;5052209;28;20040;-73
2023/07/01 00:07:59;;;;;;;9.70;3.58;;;18.80;99.90;;;;;;5038089;28;19921;-72
2023/07/01 00:10:25;;;;;;;10.27;3.47;;;18.80;99.90;;;;;;5052455;28;20090;-72
2023/07/01 00:12:52;;;;;;;6.97;3.47;;;18.80;99.90;;;;;;5031030;28;20060;-72
2023/07/01 00:15:18;;;;;;;9.48;3.17;;;18.80;99.90;;;;;;5052366;28;20048;-74
2023/07/01 00:17:44;;;;;;;8.25;3.33;;;18.80;99.90;;;;;;5032825;28;20048;-73
2023/07/01 00:20:10;;;;;;;9.00;3.35;;;18.80;99.90;;;;;;5037732;28;20059;-73
2023/07/01 00:22:36;;;;;;;6.75;3.30;;;18.90;99.90;;;;;;5035802;28;20052;-72
2023/07/01 00:25:02;;;;;;;8.85;3.10;;;18.80;99.90;;;;;;5047715;28;20657;-74
2023/07/01 00:27:28;;;;;;;5.68;2.75;;;18.80;99.90;;;;;;5033513;28;21804;-73
2023/07/01 00:29:54;;;;;;;8.85;2.85;;;18.80;99.90;;;;;;5027867;28;20155;-72
2023/07/01 00:32:19;;;;;;;8.77;2.78;;;18.80;99.90;;;;;;5054766;28;20123;-74
2023/07/01 00:34:45;;;;;;;8.60;2.90;;;18.80;99.90;;;;;;5054482;28;20080;-73
2023/07/01 00:37:11;;;;;;;9.60;3.20;;;18.80;99.90;;;;;;5055004;28;20492;-72
2023/07/01 00:39:37;;;;;;;7.63;2.83;;;18.80;99.90;;;;;;5053998;28;20036;-72
2023/07/01 00:42:02;;;;;;;9.98;3.10;;;18.80;99.90;;;;;;5049548;28;20074;-71
2023/07/01 00:44:28;;;;;;;10.32;2.97;;;18.80;99.90;;;;;;5038160;28;20490;-72
2023/07/01 00:46:54;;;;;;;8.43;3.00;;;18.80;99.90;;;;;;5034719;28;20074;-72
2023/07/01 00:49:21;;;;;;;8.82;2.97;;;18.80;99.90;;;;;;5043444;28;20147;-71
2023/07/01 00:51:46;;;;;;;8.83;2.77;;;18.80;99.90;;;;;;5037508;28;20136;-72
2023/07/01 00:54:12;;;;;;;10.20;3.00;;;18.90;99.90;;;;;;5055525;28;20048;-71
2023/07/01 00:56:38;;;;;;;9.52;2.80;;;18.90;99.90;;;;;;5056815;28;20090;-72
2023/07/01 00:59:04;;;;;;;7.22;3.00;;;18.90;99.90;;;;;;5051012;28;20044;-71
2023/07/01 01:01:35;;;;;;;5.15;2.72;;;18.80;99.90;;;;;;5051125;28;20091;-72
2023/07/01 01:04:31;;;;;;;8.48;2.90;;;18.90;99.90;;;;;;5051467;28;20040;-73
2023/07/01 01:07:18;;;;;;;;;;;18.90;99.90;;;;;;5045318;28;20122;-73
2023/07/01 01:10:02;;;;;;;10.65;2.90;;;18.90;99.90;;;;;;5026417;28;19924;-72
2023/07/01 01:12:30;;;;;;;10.73;3.20;;;18.90;99.90;;;;;;5034014;28;20046;-71
2023/07/01 01:14:57;;;;;;;8.52;2.70;;;18.90;99.90;;;;;;5047756;28;20053;-71
2023/07/01 01:17:26;;;;;;;10.40;3.00;;;18.90;99.90;;;;;;5047812;28;20060;-71
2023/07/01 01:19:53;;;;;;;10.73;3.13;;;18.90;99.90;;;;;;5032935;28;20059;-74
2023/07/01 01:22:26;;;;;;;10.20;2.97;;;18.90;99.90;;;;;;5053669;28;20381;-71
2023/07/01 01:24:57;;;;;;;9.38;2.80;;;18.90;99.90;;;;;;5031999;28;20127;-72
2023/07/01 01:27:28;;;;;;;9.20;3.35;;;18.90;99.90;;;;;;5030000;28;20551;-71
2023/07/01 01:29:54;;;;;;;6.68;2.80;;;18.90;99.90;;;;;;5035566;28;20139;-71
2023/07/01 01:32:20;;;;;;;10.90;3.40;;;18.90;99.90;;;;;;5029917;28;20053;-72
2023/07/01 01:34:46;;;;;;;10.50;3.33;;;18.90;99.90;;;;;;5056539;28;20047;-71
2023/07/01 01:37:17;;;;;;;11.02;2.90;;;18.90;99.90;;;;;;5033656;28;20369;-71
2023/07/01 01:39:48;;;;;;;9.07;2.92;;;18.90;99.90;;;;;;5041379;28;20044;-71
2023/07/01 01:42:21;;;;;;;9.23;3.08;;;18.90;99.90;;;;;;5056695;28;20047;-71
2023/07/01 01:44:52;;;;;;;8.88;3.10;;;18.90;99.90;;;;;;5037583;28;20144;-71
2023/07/01 01:47:20;;;;;;;9.50;3.60;;;18.80;99.90;;;;;;5040177;28;20044;-71
2023/07/01 01:49:51;;;;;;;6.03;3.00;;;18.90;99.90;;;;;;5040151;28;20052;-71
2023/07/01 01:52:18;;;;;;;7.03;3.10;;;18.90;99.90;;;;;;5036626;28;20044;-71
2023/07/01 01:54:48;;;;;;;6.15;2.80;;;18.90;99.90;;;;;;5055978;28;20044;-71
2023/07/01 01:57:15;;;;;;;9.43;3.78;;;18.90;99.90;;;;;;5059121;28;20098;-71
2023/07/01 01:59:44;;;;;;;6.65;2.97;;;18.90;99.90;;;;;;5059347;28;20063;-71
2023/07/01 02:02:10;;;;;;;11.10;3.22;;;18.90;99.90;;;;;;5034659;28;20090;-71
2023/07/01 02:04:36;;;;;;;19.08;3.75;;;18.80;99.90;;;;;;5037104;28;21001;-71
2023/07/01 02:07:02;;;;;;;8.13;3.30;;;18.80;99.90;;;;;;5053264;28;20095;-71
2023/07/01 02:09:28;;;;;;;7.78;3.17;;;18.80;99.90;;;;;;5054557;28;20044;-71
2023/07/01 02:11:55;;;;;;;5.47;3.10;;;18.80;99.90;;;;;;5055010;28;20045;-73
2023/07/01 02:14:21;;;;;;;7.37;3.00;;;18.80;99.90;;;;;;5040146;28;20045;-72
2023/07/01 02:16:47;;;;;;;9.02;3.53;;;18.80;99.90;;;;;;5033545;28;20040;-72
2023/07/01 02:19:12;;;;;;;7.22;3.20;;;18.80;99.90;;;;;;5046636;28;21188;-72
2023/07/01 02:21:38;;;;;;;6.95;2.90;;;18.80;99.90;;;;;;5052043;28;20036;-71
2023/07/01 02:24:04;;;;;;;9.88;3.33;;;18.70;99.90;;;;;;5056446;28;20044;-70
2023/07/01 02:26:30;;;;;;;9.95;3.30;;;18.70;99.90;;;;;;5039509;28;20052;-73
2023/07/01 02:28:55;;;;;;;6.78;3.17;;;18.60;99.90;;;;;;5051312;28;20053;-70
2023/07/01 02:31:21;;;;;;;7.70;3.22;;;18.60;99.90;;;;;;5049241;28;20037;-70
2023/07/01 02:33:50;;;;;;;7.90;3.35;;;18.60;99.90;;;;;;5047150;28;20048;-70
2023/07/01 02:36:18;;;;;;;7.72;3.15;;;18.60;99.90;;;;;;5048035;28;20041;-72
2023/07/01 02:38:44;;;;;;;9.23;3.20;;;18.60;99.90;;;;;;5037728;28;20064;-73
2023/07/01 02:41:12;;;;;;;7.80;3.38;;;18.50;99.90;;;;;;5059643;28;20040;-72
2023/07/01 02:43:38;;;;;;;7.55;2.78;;;18.50;99.90;;;;;;5056988;28;20051;-72
2023/07/01 02:46:03;;;;;;;8.65;3.35;;;18.50;99.90;;;;;;5054673;28;20878;-72
2023/07/01 02:48:29;;;;;;;12.07;3.85;;;18.50;99.90;;;;;;5051257;28;20076;-71
2023/07/01 02:50:54;;;;;;;7.70;3.50;;;18.50;99.90;;;;;;5032234;28;20075;-71
2023/07/01 02:53:20;;;;;;;9.35;3.05;;;18.50;99.90;;;;;;5049673;28;20039;-71
2023/07/01 02:55:46;;;;;;;7.18;2.92;;;18.40;99.90;;;;;;5055413;28;20131;-72
2023/07/01 02:58:11;;;;;;;6.15;3.08;;;18.40;99.90;;;;;;5032756;28;20355;-70
2023/07/01 03:00:37;;;;;;;4.82;2.70;;;18.40;99.90;;;;;;5052439;28;20055;-72
2023/07/01 03:03:06;;;;;;;9.30;3.20;;;18.30;99.90;;;;;;5051653;28;20044;-71
2023/07/01 03:05:36;;;;;;;6.72;3.03;;;18.30;99.90;;;;;;5048919;28;20128;-71
2023/07/01 03:08:05;;;;;;;6.00;3.13;;;18.30;99.90;;;;;;5032267;28;20458;-71
2023/07/01 03:10:32;;;;;;;7.25;2.90;;;18.30;99.90;;;;;;5034212;28;20451;-71
2023/07/01 03:12:58;;;;;;;6.60;3.10;;;18.30;99.90;;;;;;5045925;28;20045;-71
2023/07/01 03:15:23;;;;;;;6.07;2.80;;;18.30;99.90;;;;;;5050970;28;20053;-70
2023/07/01 03:17:49;;;;;;;6.13;2.65;;;18.30;99.90;;;;;;5048547;28;20098;-72
2023/07/01 03:20:25;;;;;;;6.00;2.90;;;18.40;99.90;;;;;;5055099;28;20055;-71
2023/07/01 03:22:56;;;;;;;7.22;2.97;;;18.30;99.90;;;;;;5052065;28;20121;-71
2023/07/01 03:25:23;;;;;;;10.35;2.83;;;18.40;99.90;;;;;;5030700;28;20045;-71
2023/07/01 03:27:49;;;;;;;6.13;2.80;;;18.30;99.90;;;;;;5031986;28;20052;-72
2023/07/01 03:30:16;;;;;;;7.80;2.92;;;18.30;99.90;;;;;;5054424;28;21867;-71
2023/07/01 03:32:43;;;;;;;6.68;3.00;;;18.30;99.90;;;;;;5030781;28;20028;-71
2023/07/01 03:35:10;;;;;;;7.50;3.25;;;18.30;99.90;;;;;;5049761;28;20057;-71
2023/07/01 03:37:37;;;;;;;7.88;2.67;;;18.30;99.90;;;;;;5053406;28;20044;-73
2023/07/01 03:40:04;;;;;;;;;;;18.20;99.90;;;;;;5030088;28;20484;-71
2023/07/01 03:42:30;;;;;;;8.43;2.85;;;18.20;99.90;;;;;;5034213;28;19924;-71
2023/07/01 03:44:56;;;;;;;7.57;3.10;;;18.10;99.90;;;;;;5029487;28;20063;-71
2023/07/01 03:47:22;;;;;;;7.53;3.05;;;18.10;99.90;;;;;;5034588;28;20052;-73
2023/07/01 03:49:48;;;;;;;6.45;3.13;;;18.10;99.90;;;;;;5027180;28;20101;-71
2023/07/01 03:52:15;;;;;;;6.22;3.20;;;18.10;99.90;;;;;;5035878;28;20067;-71
2023/07/01 03:54:40;;;;;;;8.32;3.10;;;18.00;99.90;;;;;;5035511;28;20060;-71
2023/07/01 03:57:06;;;;;;;6.15;3.20;;;18.10;99.90;;;;;;5038690;28;20072;-73
2023/07/01 03:59:32;;;;;;;6.45;3.22;;;18.10;99.90;;;;;;5054756;28;20092;-71
2023/07/01 04:01:59;;;;;;;5.90;3.00;;;18.10;99.90;;;;;;5048605;28;20226;-70
2023/07/01 04:04:25;;;;;;;5.60;2.90;;;18.10;99.90;;;;;;5050671;28;20044;-70
2023/07/01 04:06:52;;;;;;;7.60;3.00;;;18.00;99.90;;;;;;5057452;28;20051;-71
2023/07/01 04:09:18;;;;;;;7.22;3.13;;;18.10;99.90;;;;;;5058038;28;20047;-71
2023/07/01 04:11:44;;;;;;;5.47;2.65;;;18.10;99.90;;;;;;5056115;28;20083;-70
2023/07/01 04:14:10;;;;;;;8.00;3.17;;;18.10;99.90;;;;;;5030949;28;20167;-71
2023/07/01 04:16:36;;;;;;;7.22;3.10;;;18.10;99.90;;;;;;5037950;28;20450;-71
2023/07/01 04:19:01;;;;;;;8.43;3.40;;;18.10;99.90;;;;;;5031535;28;20052;-71
2023/07/01 04:21:27;;;;;;;8.38;3.28;;;18.10;99.90;;;;;;5051547;28;20455;-71
2023/07/01 04:23:53;;;;;;;7.47;3.20;;;18.00;99.90;;;;;;5030884;28;20040;-71
2023/07/01 04:26:19;;;;;;;7.05;2.80;;;18.10;99.90;;;;;;5056523;28;20048;-71
2023/07/01 04:28:44;;;;;;;6.97;2.90;;;18.10;99.90;;;;;;5053587;28;20046;-71
2023/07/01 04:31:10;;;;;;;9.95;3.42;;;18.00;99.90;;;;;;5037489;28;20048;-71
2023/07/01 04:33:36;;;;;;;6.32;3.17;;;18.00;99.90;;;;;;5054673;28;20064;-69
2023/07/01 04:36:02;;;;;;;6.72;3.33;;;18.00;99.90;;;;;;5062135;28;20048;-71
2023/07/01 04:38:27;;;;;;;7.70;3.22;;;17.90;99.90;;;;;;5049921;28;21139;-71
2023/07/01 04:40:53;;;;;;;7.43;3.42;;;17.90;99.90;;;;;;5035262;28;20049;-70
2023/07/01 04:43:20;;;;;;;7.13;3.38;;;17.90;99.90;;;;;;5051001;28;20056;-71
2023/07/01 04:45:46;;;;;;;5.37;2.90;;;17.80;99.90;;;;;;5030477;28;20048;-70
2023/07/01 04:48:11;;;;;;;9.10;3.58;;;17.80;99.90;;;;;;5050440;28;20045;-71
2023/07/01 04:50:37;;;;;;;11.32;3.40;;;17.70;99.90;;;;;;5037588;28;20186;-70
2023/07/01 04:53:03;;;;;;;7.47;3.28;;;17.70;99.90;;;;;;5031912;28;20091;-72
2023/07/01 04:55:28;;;;;;;6.50;3.28;;;17.70;99.90;;;;;;5037295;28;20071;-72
2023/07/01 04:57:54;;;;;;;7.13;3.25;;;17.70;99.90;;;;;;5055679;28;21801;-71
2023/07/01 05:00:21;;;;;;;6.38;3.15;;;17.70;99.90;;;;;;5032941;28;20055;-71
2023/07/01 05:02:47;;;;;;;5.57;3.22;;;17.70;99.90;;;;;;5043855;28;20618;-71
2023/07/01 05:05:12;;;;;;;7.22;3.03;;;17.60;99.90;;;;;;5030354;28;20127;-71
2023/07/01 05:07:38;;;;;;;7.85;3.40;;;17.60;99.90;;;;;;5034005;28;20056;-73
2023/07/01 05:10:04;;;;;;;6.85;3.13;;;17.60;99.90;;;;;;5035268;28;20048;-72
2023/07/01 05:12:30;;;;;;;4.88;3.10;;;17.60;99.90;;;;;;5053425;28;20095;-71
2023/07/01 05:14:55;;;;;;;9.13;3.47;;;17.60;99.90;;;;;;5030826;28;20259;-72
2023/07/01 05:17:21;;;;;;;6.20;3.45;;;17.60;99.90;;;;;;5049660;28;20106;-71
2023/07/01 05:19:47;;;;;;;10.18;3.92;;;17.50;99.90;;;;;;5033900;28;20055;-71
2023/07/01 05:22:13;;;;;;;7.85;3.88;;;17.50;99.90;;;;;;5053714;28;20759;-70
2023/07/01 05:24:39;;;;;;;6.95;3.70;;;17.50;99.90;;;;;;5051860;28;20051;-71
2023/07/01 05:27:04;;;;;;;6.90;3.78;;;17.60;99.90;;;;;;5049327;28;20084;-70
2023/07/01 05:29:33;;;;;;;7.65;3.72;;;17.50;99.90;;;;;;5050588;28;20123;-71
2023/07/01 05:31:58;;;;;;;6.90;3.45;;;17.50;99.90;;;;;;5043691;28;20054;-70
2023/07/01 05:34:24;;;;;;;6.47;3.65;;;17.50;99.90;;;;;;5048128;28;20151;-70
2023/07/01 05:36:50;;;;;;;6.15;3.70;;;17.50;99.90;;;;;;5032548;28;20048;-71
2023/07/01 05:39:17;;;;;;;10.50;3.85;;;17.50;99.90;;;;;;5052986;28;20125;-70
2023/07/01 05:41:43;;;;;;;6.85;3.72;;;17.50;99.90;;;;;;5054596;28;20049;-71
2023/07/01 05:44:10;;;;;;;7.95;4.32;;;17.50;99.90;;;;;;5038144;28;20048;-72
2023/07/01 05:46:36;;;;;;;6.35;3.88;;;17.50;99.90;;;;;;5043864;28;20097;-71
2023/07/01 05:49:01;;;;;;;7.75;3.92;;;17.60;99.90;;;;;;5033571;28;20381;-71
2023/07/01 05:51:27;;;;;;;7.20;3.63;;;17.60;99.90;;;;;;5054233;28;21298;-69
2023/07/01 05:53:53;;;;;;;5.43;3.60;;;17.60;99.90;;;;;;5035089;28;20048;-72
2023/07/01 05:56:21;;;;;;;6.47;4.00;;;17.50;99.90;;;;;;5036972;28;20048;-68
2023/07/01 05:58:47;;;;;;;6.75;3.85;;;17.60;99.90;;;;;;5049882;28;20071;-68
2023/07/01 06:01:12;;;;;;;7.38;3.88;;;17.60;99.90;;;;;;5044120;28;20048;-69
2023/07/01 06:03:38;;;;;;;6.50;3.80;;;17.60;99.90;;;;;;5042736;28;20044;-68
2023/07/01 06:06:04;;;;;;;6.35;3.38;;;17.60;99.90;;;;;;5045471;28;20040;-69
2023/07/01 06:08:30;;;;;;;5.72;3.65;;;17.60;99.90;;;;;;5029373;28;20045;-69
2023/07/01 06:10:55;;;;;;;5.43;3.38;;;17.60;99.90;;;;;;5045267;28;20124;-68
2023/07/01 06:13:21;;;;;;;6.20;3.55;;;17.70;99.90;;;;;;5046480;28;20051;-69
2023/07/01 06:15:47;;;;;;;6.53;3.97;;;17.70;99.90;;;;;;5045848;28;20076;-71
2023/07/01 06:18:13;;;;;;;6.53;3.40;;;17.70;99.90;;;;;;5045125;28;20056;-70
2023/07/01 06:20:39;;;;;;;6.07;3.80;;;17.70;99.90;;;;;;5043927;28;20048;-70
2023/07/01 06:23:04;;;;;;;5.43;3.60;;;17.70;99.90;;;;;;5033102;28;20051;-69
2023/07/01 06:25:30;;;;;;;6.13;3.60;;;17.70;99.90;;;;;;5054739;28;20086;-70
2023/07/01 06:27:56;;;;;;;4.93;3.50;;;17.80;99.90;;;;;;5052960;28;20132;-71
2023/07/01 06:30:22;;;;;;;3.88;3.13;;;17.80;99.90;;;;;;5032698;28;20706;-71
2023/07/01 06:32:47;;;;;;;7.95;3.63;;;17.80;99.90;;;;;;5048814;28;20045;-70
2023/07/01 06:35:13;;;;;;;7.93;3.40;;;17.80;99.90;;;;;;5035506;28;20680;-71
2023/07/01 06:37:39;;;;;;;5.65;3.53;;;17.80;99.90;;;;;;5026548;28;20052;-70
2023/07/01 06:40:05;;;;;;;5.75;3.83;;;17.80;99.90;;;;;;5026788;28;20833;-71
2023/07/01 06:42:31;;;;;;;7.23;3.63;;;17.80;99.90;;;;;;5050227;28;20766;-70
2023/07/01 06:44:57;;;;;;;5.10;3.83;;;17.80;99.90;;;;;;5049443;28;20147;-70
2023/07/01 06:47:22;;;;;;;5.82;4.00;;;17.80;99.90;;;;;;5026137;28;20052;-70
2023/07/01 06:49:48;;;;;;;6.40;3.85;;;17.80;99.90;;;;;;5049822;28;20087;-71
2023/07/01 06:52:14;;;;;;;7.03;4.15;;;17.80;99.90;;;;;;5055496;28;20041;-71
2023/07/01 06:54:42;;;;;;;6.50;3.83;;;17.80;99.90;;;;;;5032503;28;20040;-70
2023/07/01 06:57:07;;;;;;;6.28;4.20;;;17.80;99.90;;;;;;5033204;28;20407;-72
2023/07/01 06:59:33;;;;;;;5.25;3.97;;;17.80;99.90;;;;;;5036108;28;20056;-70
2023/07/01 07:01:59;;;;;;;5.72;3.80;;;17.80;99.90;;;;;;5027111;28;20133;-71
2023/07/01 07:04:25;;;;;;;6.82;4.40;;;17.80;99.90;;;;;;5014701;28;20451;-70
2023/07/01 07:06:51;;;;;;;6.63;3.92;;;17.80;99.90;;;;;;5029193;28;20045;-71
2023/07/01 07:09:17;;;;;;;6.05;4.07;;;17.80;99.90;;;;;;5030620;28;20045;-70
2023/07/01 07:11:43;;;;;;;6.85;3.90;;;17.80;99.90;;;;;;4999540;28;20050;-70
2023/07/01 07:14:08;;;;;;;6.18;4.15;;;17.80;99.90;;;;;;5000605;28;20060;-70
2023/07/01 07:16:34;;;;;;;5.85;4.25;;;17.80;99.90;;;;;;5027844;28;20048;-70
2023/07/01 07:19:01;;;;;;;7.00;4.25;;;17.80;99.90;;;;;;5031026;28;20051;-71
2023/07/01 07:21:26;;;;;;;7.18;4.60;;;17.80;99.90;;;;;;5023246;28;20068;-70
2023/07/01 07:23:52;;;;;;;5.55;3.92;;;17.80;99.90;;;;;;5009447;28;20436;-70
2023/07/01 07:26:18;;;;;;;7.75;4.38;;;17.80;99.90;;;;;;5018240;28;20083;-71
2023/07/01 07:28:43;;;;;;;4.47;4.00;;;17.80;99.90;;;;;;5013833;28;20048;-72
2023/07/01 07:31:12;;;;;;;6.25;4.20;;;17.90;99.90;;;;;;5024586;28;20064;-71
2023/07/01 07:33:38;;;;;;;8.73;4.30;;;17.90;99.90;;;;;;5001653;28;20045;-70
2023/07/01 07:36:04;;;;;;;6.03;4.43;;;17.90;99.90;;;;;;5023728;28;20045;-70
2023/07/01 07:38:29;;;;;;;6.80;4.20;;;17.90;99.90;;;;;;5012362;28;20504;-70
2023/07/01 07:40:55;;;;;;;6.95;4.10;;;17.90;99.90;;;;;;5034961;28;20551;-70
2023/07/01 07:43:21;;;;;;;5.32;3.90;;;17.90;99.90;;;;;;5029776;28;20041;-72
2023/07/01 07:45:46;;;;;;;6.30;4.07;;;17.90;99.90;;;;;;5027471;28;20128;-71
2023/07/01 07:48:12;;;;;;;7.55;4.43;;;17.90;99.90;;;;;;5021852;28;20142;-71
2023/07/01 07:50:38;;;;;;;5.97;4.40;;;17.80;99.90;;;;;;5012852;28;20061;-72
2023/07/01 07:53:04;;;;;;;7.05;4.20;;;17.90;99.90;;;;;;5009936;28;20053;-71
2023/07/01 07:55:33;;;;;;;5.43;4.40;;;17.90;99.90;;;;;;5010870;28;20052;-71
2023/07/01 07:58:00;;;;;;;4.90;4.32;;;17.90;99.90;;;;;;5022897;28;20060;-70
2023/07/01 08:00:27;;;;;;;5.40;4.43;;;18.00;99.90;;;;;;5041577;28;20060;-71
2023/07/01 08:02:52;;;;;;;4.97;4.05;;;18.00;99.90;;;;;;5042665;28;20040;-68
2023/07/01 08:05:18;;;;;;;6.63;4.45;;;18.00;99.90;;;;;;5040790;28;20040;-71
2023/07/01 08:07:46;;;;;;;6.13;4.38;;;18.00;99.90;;;;;;5051473;28;20480;-71
2023/07/01 08:10:12;;;;;;;4.78;4.25;;;18.00;99.90;;;;;;5034467;28;20044;-71
2023/07/01 08:12:38;;;;;;;6.30;4.32;;;18.00;99.90;;;;;;5053515;28;20055;-71
2023/07/01 08:15:04;;;;;;;5.32;4.13;;;18.00;99.90;;;;;;5053739;28;20056;-73
2023/07/01 08:17:30;;;;;;;4.60;4.20;;;18.10;99.90;;;;;;5051651;28;20123;-69
2023/07/01 08:19:55;;;;;;;5.97;4.47;;;18.10;99.90;;;;;;5054913;28;20059;-69
2023/07/01 08:22:24;;;;;;;6.45;4.63;;;18.10;99.90;;;;;;5055348;28;20049;-72
2023/07/01 08:24:50;;;;;;;5.38;4.78;;;18.10;99.90;;;;;;5045050;28;20511;-70
2023/07/01 08:27:15;;;;;;;6.05;4.43;;;18.20;99.90;;;;;;5035324;28;20055;-70
2023/07/01 08:29:41;;;;;;;6.82;4.90;;;18.20;99.90;;;;;;5055314;28;20052;-70
2023/07/01 08:32:07;;;;;;;7.03;4.70;;;18.30;99.90;;;;;;5027772;28;20041;-71
2023/07/01 08:34:35;;;;;;;6.47;4.50;;;18.30;99.90;;;;;;5034301;28;20048;-70
2023/07/01 08:37:01;;;;;;;5.57;4.40;;;18.40;99.90;;;;;;5037375;28;20446;-70
2023/07/01 08:39:27;;;;;;;4.93;4.43;;;18.40;99.90;;;;;;5050786;28;20056;-71
2023/07/01 08:42:02;;;;;;;6.45;4.20;;;18.50;99.90;;;;;;5053201;28;20076;-69
2023/07/01 08:44:29;;;;;;;7.13;4.45;;;18.50;99.90;;;;;;5053375;28;20048;-72
2023/07/01 08:46:55;;;;;;;5.82;4.25;;;18.40;99.90;;;;;;5053674;28;20510;-71
2023/07/01 08:49:24;;;;;;;4.30;3.90;;;18.40;99.90;;;;;;5032964;28;20045;-71
2023/07/01 08:52:04;;;;;;;4.32;3.85;;;18.40;99.90;;;;;;5043817;28;20079;-73
2023/07/01 08:54:30;;;;;;;4.35;3.83;;;18.40;99.90;;;;;;5021160;28;20160;-72
2023/07/01 08:56:55;;;;;;;4.65;4.13;;;18.40;99.90;;;;;;5036110;28;20052;-71
2023/07/01 08:59:21;;;;;;;4.60;4.10;;;18.40;99.90;;;;;;5034369;28;20071;-71
2023/07/01 09:01:47;;;;;;;4.72;4.00;;;18.40;99.90;;;;;;5047115;28;21200;-70
2023/07/01 09:04:13;;;;;;;4.50;3.67;;;18.40;99.90;;;;;;5036055;28;20392;-71
2023/07/01 09:06:39;;;;;;;4.20;3.80;;;18.30;99.90;;;;;;5051684;28;20048;-72
2023/07/01 09:09:05;;;;;;;4.38;3.90;;;18.40;99.90;;;;;;5049287;28;20076;-69
2023/07/01 09:11:31;;;;;;;4.38;3.80;;;18.30;99.90;;;;;;5033353;28;20052;-69
2023/07/01 09:13:57;;;;;;;5.15;3.75;;;18.30;99.90;;;;;;5051048;28;20071;-68
2023/07/01 09:16:34;;;;;;;4.72;3.97;;;18.40;99.90;;;;;;5053388;28;20048;-72
2023/07/01 09:19:21;;;;;;;5.53;4.22;;;18.40;99.90;;;;;;5050964;28;20048;-72
2023/07/01 09:21:47;;;;;;;4.85;4.35;;;18.30;99.90;;;;;;5022936;28;20127;-72
2023/07/01 09:24:12;;;;;;;4.75;4.22;;;18.30;99.90;;;;;;5048083;28;20040;-70
2023/07/01 09:26:39;;;;;;;4.85;4.35;;;18.40;99.90;;;;;;5038103;28;20473;-70
2023/07/01 09:29:15;;;;;;;4.55;3.92;;;18.40;99.90;;;;;;5039666;28;20828;-71
2023/07/01 09:31:51;;;;;;;4.22;3.83;;;18.40;99.90;;;;;;5050175;28;20045;-72
2023/07/01 09:34:18;;;;;;;5.00;4.50;;;18.40;99.90;;;;;;5037883;28;21518;-71
2023/07/01 09:36:44;;;;;;;6.50;4.70;;;18.40;99.90;;;;;;5053969;28;20061;-70
2023/07/01 09:39:09;;;;;;;5.28;4.78;;;18.40;99.90;;;;;;5055653;28;20515;-73
2023/07/01 09:41:35;;;;;;;7.53;4.40;;;18.50;99.90;;;;;;5028488;28;20190;-72
2023/07/01 09:44:14;;;;;;;5.13;4.32;;;18.60;99.90;;;;;;5052866;28;20079;-71
2023/07/01 09:46:46;;;;;;;5.15;4.65;;;18.60;99.90;;;;;;5054141;28;20044;-71
2023/07/01 09:49:12;;;;;;;5.80;4.82;;;18.60;99.90;;;;;;5039974;28;20564;-73
2023/07/01 09:51:51;;;;;;;5.63;5.03;;;18.60;99.90;;;;;;5029002;28;20053;-71
2023/07/01 09:54:27;;;;;;;5.47;4.97;;;18.70;99.90;;;;;;5046375;28;20036;-70
2023/07/01 09:56:54;;;;;;;5.97;5.07;;;18.70;99.90;;;;;;5029949;28;20491;-71
2023/07/01 09:59:20;;;;;;;5.57;5.00;;;18.70;99.90;;;;;;5056560;28;20286;-71
2023/07/01 10:01:47;;;;;;;4.90;4.47;;;18.70;99.90;;;;;;5042855;28;20044;-69
2023/07/01 10:04:13;;;;;;;5.93;5.13;;;18.60;99.90;;;;;;5048068;28;20056;-71
2023/07/01 10:06:42;;;;;;;5.32;4.82;;;18.60;99.90;;;;;;5053335;28;20055;-72
2023/07/01 10:09:08;;;;;;;5.40;4.90;;;18.60;99.90;;;;;;5036872;28;20087;-71
2023/07/01 10:11:35;;;;;;;5.20;4.80;;;18.70;99.90;;;;;;5050538;28;20123;-71
2023/07/01 10:14:04;;;;;;;5.93;5.32;;;18.70;99.90;;;;;;5040322;28;20064;-71
2023/07/01 10:16:30;;;;;;;5.00;4.60;;;18.70;99.90;;;;;;5027834;28;20048;-72
2023/07/01 10:18:59;;;;;;;5.30;4.80;;;18.70;99.90;;;;;;5028647;28;20048;-72
2023/07/01 10:21:31;;;;;;;4.60;4.20;;;18.70;99.90;;;;;;5054931;28;20072;-72
2023/07/01 10:24:00;;;;;;;5.47;4.35;;;18.80;99.90;;;;;;5055574;28;20040;-73
2023/07/01 10:26:34;;;;;;;4.75;4.35;;;18.80;99.90;;;;;;5037598;28;20053;-73
2023/07/01 10:29:20;;;;;;;5.53;4.53;;;18.80;99.90;;;;;;5036791;28;20048;-72
2023/07/01 10:32:08;;;;;;;5.15;4.32;;;18.80;99.90;;;;;;5031765;28;20094;-71
2023/07/01 10:34:52;;;;;;;6.18;4.80;;;18.80;99.90;;;;;;5036519;28;20191;-74
2023/07/01 10:37:18;;;;;;;5.75;4.63;;;18.80;99.90;;;;;;5028542;28;20044;-74
2023/07/01 10:39:44;;;;;;;5.00;4.55;;;18.90;99.90;;;;;;5058303;28;20501;-70
2023/07/01 10:42:29;;;;;;;5.60;5.10;;;18.90;99.90;;;;;;5034306;28;21662;-70
2023/07/01 10:45:15;;;;;;;4.75;4.35;;;19.00;99.90;;;;;;5034426;28;20044;-72
2023/07/01 10:47:44;;;;;;;4.88;4.47;;;19.00;99.90;;;;;;5029260;28;20047;-72
2023/07/01 10:50:17;;;;;;;4.72;4.32;;;19.10;99.90;;;;;;5060220;28;20080;-72
2023/07/01 10:52:58;;;;;;;5.07;4.45;;;19.10;99.90;;;;;;5059979;28;20067;-76
2023/07/01 10:55:44;;;;;;;4.90;4.40;;;19.10;99.90;;;;;;5044438;28;20048;-69
2023/07/01 10:58:26;;;;;;;4.68;4.25;;;19.20;99.90;;;;;;5050125;28;20049;-72
2023/07/01 11:00:58;;;;;;;4.50;4.10;;;19.20;99.90;;;;;;5052372;28;20145;-72
2023/07/01 11:03:36;;;;;;;4.57;4.18;;;19.20;99.90;;;;;;5052533;28;20467;-70
2023/07/01 11:06:05;;;;;;;4.53;4.13;;;19.30;99.90;;;;;;5049352;28;20041;-71
2023/07/01 11:08:33;;;;;;;4.80;4.40;;;19.30;99.90;;;;;;5026795;28;20049;-71
2023/07/01 11:10:59;;;;;;;5.63;4.25;;;19.40;99.90;;;;;;5055640;28;21048;-71
2023/07/01 11:13:26;;;;;;;4.75;4.35;;;19.40;99.90;;;;;;5032574;28;20470;-72
2023/07/01 11:16:07;;;;;;;5.20;4.50;;;19.40;99.90;;;;;;5037279;28;20052;-70
2023/07/01 11:18:50;;;;;;;4.30;3.90;;;19.40;99.90;;;;;;5024291;28;20046;-71
2023/07/01 11:21:20;;;;;;;4.47;4.07;;;19.40;99.90;;;;;;5053826;28;20138;-71
2023/07/01 11:23:55;;;;;;;4.57;4.05;;;19.40;99.90;;;;;;5052174;28;20149;-72
2023/07/01 11:26:24;;;;;;;4.28;3.88;;;19.40;99.90;;;;;;5046002;28;20048;-71
2023/07/01 11:28:51;;;;;;;4.45;4.05;;;19.50;99.90;;;;;;5027933;28;20052;-69
2023/07/01 11:31:18;;;;;;;4.57;4.03;;;19.50;99.90;;;;;;5032831;28;20040;-69
2023/07/01 11:33:49;;;;;;;4.43;4.03;;;19.50;99.90;;;;;;5052637;28;20048;-69
2023/07/01 11:36:16;;;;;;;4.93;4.53;;;19.60;99.90;;;;;;5029143;28;20074;-69
2023/07/01 11:38:48;;;;;;;4.38;4.03;;;19.60;99.90;;;;;;5054916;28;20614;-70
2023/07/01 11:41:23;;;;;;;4.72;4.20;;;19.60;99.90;;;;;;5046647;28;20500;-70
2023/07/01 11:43:49;;;;;;;4.57;4.13;;;19.60;99.90;;;;;;5045308;28;20044;-71
2023/07/01 11:46:33;;;;;;;4.70;4.30;;;19.60;99.90;;;;;;5034853;28;20059;-70
2023/07/01 11:49:16;;;;;;;4.85;4.45;;;19.60;99.90;;;;;;5051564;28;21021;-69
2023/07/01 11:51:48;;;;;;;4.82;4.38;;;19.60;99.90;;;;;;5051234;28;20052;-70
2023/07/01 11:54:15;;;;;;;5.40;4.55;;;19.60;99.90;;;;;;5050273;28;20044;-71
2023/07/01 11:56:45;;;;;;;6.20;4.70;;;19.60;99.90;;;;;;5034429;28;20044;-70
2023/07/01 11:59:31;;;;;;;5.60;4.90;;;19.60;99.90;;;;;;5035878;28;20059;-71
2023/07/01 12:01:58;;;;;;;5.05;4.55;;;19.70;99.90;;;;;;5049179;28;20055;-71
2023/07/01 12:04:23;;;;;;;7.07;4.97;;;19.70;99.90;;;;;;5050395;28;20070;-71
2023/07/01 12:06:49;;;;;;;5.72;5.13;;;19.80;99.90;;;;;;5057819;28;20041;-72
2023/07/01 12:09:28;;;;;;;5.80;5.30;;;19.80;99.90;;;;;;5053677;28;20492;-74
2023/07/01 12:11:55;;;;;;;5.68;4.78;;;19.90;99.90;;;;;;5050194;28;20438;-70
2023/07/01 12:14:23;;;;;;;6.43;5.82;;;20.00;99.90;;;;;;5053463;28;20048;-72
2023/07/01 12:16:49;;;;;;;6.30;5.68;;;20.00;99.90;;;;;;5046432;28;21122;-73
2023/07/01 12:19:23;;;;;;;6.45;5.85;;;20.00;99.90;;;;;;5053401;28;20072;-72
2023/07/01 12:21:50;;;;;;;6.40;5.80;;;20.00;99.90;;;;;;5051351;28;20044;-71
2023/07/01 12:24:20;;;;;;;7.68;5.78;;;20.10;99.90;;;;;;5050900;28;20044;-73
2023/07/01 12:26:52;;;;;;;6.07;5.47;;;20.20;99.90;;;;;;5054248;28;20044;-71
2023/07/01 12:29:18;;;;;;;6.80;6.03;;;20.30;99.90;;;;;;5023311;28;20055;-71
2023/07/01 12:31:44;;;;;;;5.45;4.95;;;20.40;99.90;;;;;;5053082;28;20912;-69
2023/07/01 12:34:09;;;;;;;7.05;5.43;;;20.40;99.90;;;;;;5051403;28;20044;-71
2023/07/01 12:36:35;;;;;;;6.78;5.97;;;20.40;99.90;;;;;;5053957;28;20044;-71
2023/07/01 12:39:03;;;;;;;6.50;5.75;;;20.40;99.90;;;;;;5051150;28;20170;-72
2023/07/01 12:41:34;;;;;;;6.25;5.65;;;20.50;99.90;;;;;;5047760;28;20041;-70
2023/07/01 12:44:00;;;;;;;6.53;5.25;;;20.50;99.90;;;;;;5048677;28;20971;-69
2023/07/01 12:46:25;;;;;;;6.13;5.43;;;20.60;99.90;;;;;;5051661;28;20040;-72
2023/07/01 12:48:51;;;;;;;6.00;5.40;;;20.50;99.90;;;;;;5035070;28;20056;-71
2023/07/01 12:51:17;;;;;;;5.65;5.05;;;20.50;99.90;;;;;;5050557;28;20083;-70